Time;durP1;ratioP1;P1;durP2;ratioP2;P2;SDS_P1;SDS_P2;PMS_P1;PMS_P2;Temp;Humidity;BMP_temperature;BMP_pressure;BME280_temperature;BME280_humidity;BME280_pressure;Samples;Min_cycle;Max_cycle;Signal;HPM_P1;HPM_P2
2022/03/29 00:01:25;;;;;;;11.13;4.00;;;;;;;;;;5032487;28;20480;-73
2022/03/29 00:03:51;;;;;;;6.97;4.20;;;;;;;;;;5030418;28;20033;-73
2022/03/29 00:06:17;;;;;;;14.02;3.92;;;;;;;;;;5036344;28;20040;-72
2022/03/29 00:08:43;;;;;;;17.70;3.55;;;;;;;;;;5036722;28;20100;-72
2022/03/29 00:11:09;;;;;;;13.13;3.67;;;;;;;;;;5036307;28;20590;-72
2022/03/29 00:13:35;;;;;;;9.38;3.78;;;;;;;;;;5028372;28;20080;-71
2022/03/29 00:16:01;;;;;;;14.73;4.38;;;;;;;;;;5035933;28;20132;-72
2022/03/29 00:18:27;;;;;;;12.63;3.67;;;;;;;;;;5035979;28;20073;-71
2022/03/29 00:20:53;;;;;;;7.57;3.83;;;;;;;;;;5035382;28;20400;-71
2022/03/29 00:23:19;;;;;;;5.18;3.45;;;;;;;;;;5035158;28;20033;-71
2022/03/29 00:25:45;;;;;;;7.50;3.40;;;;;;;;;;5034894;28;20534;-70
2022/03/29 00:28:11;;;;;;;13.02;3.67;;;;;;;;;;5035198;28;20108;-72
2022/03/29 00:30:38;;;;;;;15.02;3.78;;;;;;;;;;5018497;28;20120;-72
2022/03/29 00:33:04;;;;;;;19.58;3.97;;;;;;;;;;5015222;28;20030;-72
2022/03/29 00:35:30;;;;;;;17.08;3.58;;;;;;;;;;4998345;28;20710;-73
2022/03/29 00:37:56;;;;;;;9.68;3.53;;;;;;;;;;5015759;28;20055;-72
2022/03/29 00:40:22;;;;;;;8.52;3.53;;;;;;;;;;5016067;28;20111;-72
2022/03/29 00:42:48;;;;;;;13.57;3.45;;;;;;;;;;5015971;28;20038;-71
2022/03/29 00:45:14;;;;;;;6.78;3.20;;;;;;;;;;5015884;28;20504;-72
2022/03/29 00:47:41;;;;;;;7.97;3.70;;;;;;;;;;5015981;28;20041;-71
2022/03/29 00:50:07;;;;;;;5.68;3.25;;;;;;;;;;5015694;28;20028;-73
2022/03/29 00:52:34;;;;;;;10.57;3.58;;;;;;;;;;5015369;28;20034;-72
2022/03/29 00:55:00;;;;;;;8.85;3.63;;;;;;;;;;5015707;28;20058;-72
2022/03/29 00:57:28;;;;;;;8.95;4.00;;;;;;;;;;5015239;28;20033;-72
2022/03/29 00:59:54;;;;;;;13.50;3.80;;;;;;;;;;5015867;28;20030;-73
2022/03/29 01:02:20;;;;;;;10.45;3.55;;;;;;;;;;5015519;28;20030;-72
2022/03/29 01:04:46;;;;;;;5.38;3.10;;;;;;;;;;5015988;28;20026;-71
2022/03/29 01:07:13;;;;;;;9.00;3.50;;;;;;;;;;4997740;28;20973;-73
2022/03/29 01:09:39;;;;;;;9.38;3.47;;;;;;;;;;5033419;28;20384;-73
2022/03/29 01:12:05;;;;;;;8.80;3.13;;;;;;;;;;5035075;28;20461;-74
2022/03/29 01:14:32;;;;;;;10.73;3.53;;;;;;;;;;5035082;28;20026;-74
2022/03/29 01:19:43;;;;;;;6.85;3.47;;;;;;;;;;5035210;28;20092;-74
2022/03/29 01:22:10;;;;;;;4.70;3.83;;;;;;;;;;5017231;28;20021;-74
2022/03/29 01:24:37;;;;;;;3.47;3.10;;;;;;;;;;5017297;28;20026;-73
2022/03/29 01:27:04;;;;;;;7.10;3.03;;;;;;;;;;5035162;28;20133;-74
2022/03/29 01:29:30;;;;;;;3.72;3.17;;;;;;;;;;5019968;28;20104;-74
2022/03/29 01:31:58;;;;;;;10.70;3.25;;;;;;;;;;5009250;28;20546;-74
2022/03/29 01:34:24;;;;;;;4.15;2.92;;;;;;;;;;5034431;28;20097;-71
2022/03/29 01:36:50;;;;;;;6.65;3.08;;;;;;;;;;5035073;28;20100;-73
2022/03/29 01:39:16;;;;;;;8.52;3.70;;;;;;;;;;5034842;28;20388;-71
2022/03/29 01:41:42;;;;;;;4.30;3.60;;;;;;;;;;5016982;28;20025;-73
2022/03/29 01:44:09;;;;;;;6.35;2.97;;;;;;;;;;5034682;28;20029;-72
2022/03/29 01:46:35;;;;;;;7.72;3.38;;;;;;;;;;5034138;28;20051;-71
2022/03/29 01:49:02;;;;;;;3.47;3.17;;;;;;;;;;5016381;28;20741;-72
2022/03/29 01:51:28;;;;;;;4.40;3.10;;;;;;;;;;5033861;28;20053;-72
2022/03/29 01:53:55;;;;;;;7.25;3.70;;;;;;;;;;5034357;28;20415;-73
2022/03/29 01:56:21;;;;;;;6.50;3.20;;;;;;;;;;5015751;28;20340;-71
2022/03/29 01:58:47;;;;;;;6.72;3.00;;;;;;;;;;5033249;28;20029;-72
2022/03/29 02:01:13;;;;;;;8.93;3.35;;;;;;;;;;5033235;28;20532;-72
2022/03/29 02:03:39;;;;;;;11.10;3.40;;;;;;;;;;5033660;28;20120;-74
2022/03/29 02:06:05;;;;;;;11.95;3.30;;;;;;;;;;5033283;28;20063;-71
2022/03/29 02:08:31;;;;;;;22.38;5.18;;;;;;;;;;5033494;28;20100;-73
2022/03/29 02:10:57;;;;;;;9.30;3.63;;;;;;;;;;5034218;28;20464;-72
2022/03/29 02:13:23;;;;;;;11.55;3.50;;;;;;;;;;5016195;28;20029;-72
2022/03/29 02:15:49;;;;;;;6.88;3.40;;;;;;;;;;5033909;28;20037;-72
2022/03/29 02:18:15;;;;;;;4.90;3.30;;;;;;;;;;5025927;28;20052;-71
2022/03/29 02:20:41;;;;;;;8.15;3.30;;;;;;;;;;5023626;28;20021;-73
2022/03/29 02:23:08;;;;;;;10.75;3.45;;;;;;;;;;5033492;28;20014;-71
2022/03/29 02:25:34;;;;;;;17.55;3.53;;;;;;;;;;5030655;28;20061;-72
2022/03/29 02:28:00;;;;;;;5.25;3.03;;;;;;;;;;5053010;28;20534;-72
2022/03/29 02:30:26;;;;;;;12.00;3.28;;;;;;;;;;5053114;28;20029;-72
2022/03/29 02:32:52;;;;;;;12.10;3.33;;;;;;;;;;5053510;28;20036;-73
2022/03/29 02:35:18;;;;;;;6.47;3.67;;;;;;;;;;5053729;28;20052;-75
2022/03/29 02:37:45;;;;;;;5.63;3.50;;;;;;;;;;5053488;28;20048;-74
2022/03/29 02:40:13;;;;;;;5.78;3.38;;;;;;;;;;5035540;28;20021;-76
2022/03/29 02:42:46;;;;;;;6.97;3.38;;;;;;;;;;5053528;28;20102;-74
2022/03/29 02:45:14;;;;;;;6.53;3.53;;;;;;;;;;5053497;28;20104;-74
2022/03/29 02:47:40;;;;;;;7.20;3.20;;;;;;;;;;5045976;28;20017;-74
2022/03/29 02:50:07;;;;;;;6.70;3.30;;;;;;;;;;5033852;28;20041;-74
2022/03/29 02:52:33;;;;;;;7.40;2.95;;;;;;;;;;5033411;28;20484;-76
2022/03/29 02:54:59;;;;;;;8.70;3.15;;;;;;;;;;5033384;28;20025;-75
2022/03/29 02:57:25;;;;;;;5.90;3.13;;;;;;;;;;5033211;28;20350;-74
2022/03/29 02:59:51;;;;;;;4.68;3.00;;;;;;;;;;5033291;28;20029;-73
2022/03/29 03:02:18;;;;;;;5.90;3.33;;;;;;;;;;5033048;28;20032;-73
2022/03/29 03:04:44;;;;;;;7.70;3.40;;;;;;;;;;5033234;28;20468;-75
2022/03/29 03:07:10;;;;;;;5.30;3.38;;;;;;;;;;5033299;28;20026;-75
2022/03/29 03:09:36;;;;;;;5.38;3.10;;;;;;;;;;5033416;28;20033;-74
2022/03/29 03:12:02;;;;;;;5.78;3.10;;;;;;;;;;5033061;28;20041;-75
2022/03/29 03:14:28;;;;;;;13.70;3.30;;;;;;;;;;5033299;28;20052;-75
2022/03/29 03:16:54;;;;;;;3.75;2.92;;;;;;;;;;5033006;28;20082;-73
2022/03/29 03:19:20;;;;;;;4.20;3.03;;;;;;;;;;5032922;28;20762;-74
2022/03/29 03:21:46;;;;;;;7.07;3.35;;;;;;;;;;5032938;28;20096;-73
2022/03/29 03:24:13;;;;;;;3.95;3.00;;;;;;;;;;5033106;28;20049;-75
2022/03/29 03:26:39;;;;;;;6.72;3.60;;;;;;;;;;5032991;28;20026;-74
2022/03/29 03:29:05;;;;;;;8.43;3.28;;;;;;;;;;5032635;28;20029;-70
2022/03/29 03:31:31;;;;;;;7.20;3.05;;;;;;;;;;5031672;28;20088;-71
2022/03/29 03:33:57;;;;;;;5.45;3.60;;;;;;;;;;5031718;28;20045;-70
2022/03/29 03:36:23;;;;;;;6.75;3.65;;;;;;;;;;5031323;28;20028;-72
2022/03/29 03:38:49;;;;;;;4.03;3.40;;;;;;;;;;5033409;28;20029;-72
2022/03/29 03:41:15;;;;;;;20.42;3.50;;;;;;;;;;5035809;28;20439;-70
2022/03/29 03:43:41;;;;;;;4.63;3.22;;;;;;;;;;5035889;28;20029;-71
2022/03/29 03:46:07;;;;;;;4.95;3.50;;;;;;;;;;5036085;28;20026;-70
2022/03/29 03:48:33;;;;;;;4.43;2.92;;;;;;;;;;5036317;28;20025;-72
2022/03/29 03:51:01;;;;;;;6.40;3.45;;;;;;;;;;5036773;28;20385;-74
2022/03/29 03:53:27;;;;;;;6.72;3.55;;;;;;;;;;5015050;28;20026;-72
2022/03/29 03:55:53;;;;;;;6.18;3.38;;;;;;;;;;5036715;28;20539;-73
2022/03/29 03:58:19;;;;;;;5.45;3.33;;;;;;;;;;5036033;28;20021;-72
2022/03/29 04:00:45;;;;;;;8.07;2.88;;;;;;;;;;5035679;28;20071;-72
2022/03/29 04:03:11;;;;;;;3.85;3.50;;;;;;;;;;5017813;28;20120;-71
2022/03/29 04:05:38;;;;;;;5.97;3.80;;;;;;;;;;5034805;28;20599;-71
2022/03/29 04:08:04;;;;;;;5.70;4.05;;;;;;;;;;5035059;28;20021;-71
2022/03/29 04:10:31;;;;;;;5.50;4.00;;;;;;;;;;5035226;28;20495;-71
2022/03/29 04:12:57;;;;;;;7.57;3.90;;;;;;;;;;5034633;28;20037;-71
2022/03/29 04:15:23;;;;;;;5.65;3.67;;;;;;;;;;5035002;28;20031;-71
2022/03/29 04:17:49;;;;;;;4.57;3.35;;;;;;;;;;5034549;28;20053;-71
2022/03/29 04:20:15;;;;;;;10.13;3.80;;;;;;;;;;5034912;28;20472;-71
2022/03/29 04:22:41;;;;;;;8.98;3.80;;;;;;;;;;5034988;28;20049;-70
2022/03/29 04:25:07;;;;;;;4.13;3.10;;;;;;;;;;5035115;28;20032;-71
2022/03/29 04:27:33;;;;;;;5.55;3.70;;;;;;;;;;5031906;28;20029;-70
2022/03/29 04:29:59;;;;;;;5.97;3.30;;;;;;;;;;5034881;28;20038;-71
2022/03/29 04:32:25;;;;;;;3.78;3.42;;;;;;;;;;5034960;28;20045;-71
2022/03/29 04:34:51;;;;;;;4.47;3.80;;;;;;;;;;5017031;28;20018;-70
2022/03/29 04:37:17;;;;;;;4.30;3.50;;;;;;;;;;5016787;28;20083;-71
2022/03/29 04:39:46;;;;;;;4.95;3.83;;;;;;;;;;5034348;28;20416;-71
2022/03/29 04:42:12;;;;;;;8.25;4.10;;;;;;;;;;5034229;28;20101;-71
2022/03/29 04:44:38;;;;;;;5.47;3.85;;;;;;;;;;5034636;28;20668;-71
2022/03/29 04:47:05;;;;;;;11.95;4.35;;;;;;;;;;5034671;28;20488;-71
2022/03/29 04:49:31;;;;;;;12.20;3.92;;;;;;;;;;5034347;28;20026;-72
2022/03/29 04:51:57;;;;;;;6.13;3.33;;;;;;;;;;5035385;28;20029;-72
2022/03/29 04:54:23;;;;;;;7.65;3.92;;;;;;;;;;5035826;28;20177;-72
2022/03/29 04:56:49;;;;;;;10.73;4.22;;;;;;;;;;5035334;28;20029;-73
2022/03/29 04:59:15;;;;;;;7.05;3.70;;;;;;;;;;5035086;28;20029;-74
2022/03/29 05:01:41;;;;;;;9.32;4.35;;;;;;;;;;5035372;28;20026;-73
2022/03/29 05:04:10;;;;;;;8.43;4.13;;;;;;;;;;5035694;28;20021;-72
2022/03/29 05:06:36;;;;;;;12.35;4.63;;;;;;;;;;5034805;28;20029;-72
2022/03/29 05:09:03;;;;;;;6.05;4.05;;;;;;;;;;5034889;28;20022;-70
2022/03/29 05:11:29;;;;;;;10.93;3.80;;;;;;;;;;5016585;28;20079;-71
2022/03/29 05:13:55;;;;;;;5.80;4.00;;;;;;;;;;5016485;28;20029;-72
2022/03/29 05:16:21;;;;;;;9.00;4.00;;;;;;;;;;5030022;28;20124;-71
2022/03/29 05:18:47;;;;;;;9.43;3.88;;;;;;;;;;5034240;28;20030;-71
2022/03/29 05:21:13;;;;;;;7.43;4.40;;;;;;;;;;5033724;28;20025;-71
2022/03/29 05:23:40;;;;;;;5.88;3.42;;;;;;;;;;5042266;28;20033;-70
2022/03/29 05:26:05;;;;;;;4.65;4.00;;;;;;;;;;5034369;28;20021;-71
2022/03/29 05:28:31;;;;;;;4.32;3.90;;;;;;;;;;5033486;28;20474;-70
2022/03/29 05:30:57;;;;;;;8.05;3.80;;;;;;;;;;5033412;28;20175;-70
2022/03/29 05:33:23;;;;;;;7.20;3.90;;;;;;;;;;5043814;28;20041;-70
2022/03/29 05:35:49;;;;;;;12.15;4.50;;;;;;;;;;5044084;28;20353;-74
2022/03/29 05:38:15;;;;;;;34.25;5.88;;;;;;;;;;5049522;28;20025;-78
2022/03/29 05:40:41;;;;;;;29.50;5.68;;;;;;;;;;5038591;28;20022;-81
2022/03/29 05:43:17;;;;;;;23.95;5.15;;;;;;;;;;5026420;28;20457;-76
2022/03/29 05:45:45;;;;;;;21.92;5.63;;;;;;;;;;5018753;28;20025;-75
2022/03/29 05:50:55;;;;;;;21.52;4.97;;;;;;;;;;5026869;28;20128;-75
2022/03/29 05:53:22;;;;;;;13.80;6.00;;;;;;;;;;5040025;28;20120;-75
2022/03/29 05:55:48;;;;;;;41.13;7.20;;;;;;;;;;5051783;28;20039;-75
2022/03/29 05:58:16;;;;;;;22.30;6.85;;;;;;;;;;5053835;28;20116;-75
2022/03/29 06:00:42;;;;;;;31.55;7.50;;;;;;;;;;5018850;28;20034;-77
2022/03/29 06:03:08;;;;;;;30.85;7.45;;;;;;;;;;5027974;28;20038;-73
2022/03/29 06:05:36;;;;;;;22.15;6.07;;;;;;;;;;5036858;28;20023;-77
2022/03/29 06:08:02;;;;;;;26.17;6.47;;;;;;;;;;5034773;28;20086;-71
2022/03/29 06:10:28;;;;;;;22.10;6.53;;;;;;;;;;5053789;28;20440;-71
2022/03/29 06:12:54;;;;;;;24.95;5.60;;;;;;;;;;5033811;28;20095;-75
2022/03/29 06:15:20;;;;;;;18.90;6.70;;;;;;;;;;5014846;28;20022;-64
2022/03/29 06:17:46;;;;;;;34.30;6.30;;;;;;;;;;5036473;28;20437;-70
2022/03/29 06:20:12;;;;;;;28.30;6.63;;;;;;;;;;5027666;28;20640;-73
2022/03/29 06:22:40;;;;;;;23.92;6.80;;;;;;;;;;5048109;28;20033;-66
2022/03/29 06:25:08;;;;;;;24.08;7.07;;;;;;;;;;5047216;28;20041;-66
2022/03/29 06:27:34;;;;;;;15.68;7.13;;;;;;;;;;5044496;28;20024;-66
2022/03/29 06:29:59;;;;;;;25.75;7.70;;;;;;;;;;5044216;28;20388;-68
2022/03/29 06:32:25;;;;;;;45.25;8.02;;;;;;;;;;5042719;28;20041;-66
2022/03/29 06:34:51;;;;;;;18.95;7.25;;;;;;;;;;5038989;28;20505;-75
2022/03/29 06:37:17;;;;;;;18.20;7.53;;;;;;;;;;5040386;28;20036;-66
2022/03/29 06:39:43;;;;;;;27.27;7.93;;;;;;;;;;5034897;28;20472;-74
2022/03/29 06:42:09;;;;;;;32.00;8.88;;;;;;;;;;5037538;28;20021;-65
2022/03/29 06:44:35;;;;;;;24.67;8.18;;;;;;;;;;5042129;28;20025;-74
2022/03/29 06:47:02;;;;;;;15.98;7.93;;;;;;;;;;5044698;28;20040;-71
2022/03/29 06:49:28;;;;;;;18.08;8.65;;;;;;;;;;5037500;28;20084;-76
2022/03/29 06:51:54;;;;;;;11.73;7.47;;;;;;;;;;5049914;28;20121;-74
2022/03/29 06:54:20;;;;;;;10.25;8.13;;;;;;;;;;5040698;28;20096;-66
2022/03/29 06:56:47;;;;;;;13.43;8.05;;;;;;;;;;5038793;28;20469;-65
2022/03/29 06:59:13;;;;;;;19.88;8.32;;;;;;;;;;5045266;28;20025;-74
2022/03/29 07:01:39;;;;;;;15.07;7.97;;;;;;;;;;5047735;28;20039;-65
2022/03/29 07:04:07;;;;;;;21.65;8.82;;;;;;;;;;5019999;28;20022;-69
2022/03/29 07:06:33;;;;;;;15.88;8.30;;;;;;;;;;5035322;28;20021;-66
2022/03/29 07:11:45;;;;;;;17.38;8.48;;;;;;;;;;5052338;28;20091;-72
2022/03/29 07:14:12;;;;;;;10.30;7.85;;;;;;;;;;5034614;28;20033;-76
2022/03/29 07:16:39;;;;;;;14.77;8.48;;;;;;;;;;5052743;28;20070;-75
2022/03/29 07:19:08;;;;;;;11.00;7.80;;;;;;;;;;5052182;28;20040;-65
2022/03/29 07:21:34;;;;;;;18.67;8.10;;;;;;;;;;5038308;28;20104;-71
2022/03/29 07:24:01;;;;;;;12.60;7.57;;;;;;;;;;5027732;28;20087;-69
2022/03/29 07:26:30;;;;;;;11.23;7.45;;;;;;;;;;5037861;28;20049;-65
2022/03/29 07:28:56;;;;;;;13.90;8.43;;;;;;;;;;5014348;28;20206;-65
2022/03/29 07:31:22;;;;;;;15.15;7.50;;;;;;;;;;5031198;28;20029;-65
2022/03/29 07:33:49;;;;;;;14.15;7.95;;;;;;;;;;5031464;28;20074;-64
2022/03/29 07:36:15;;;;;;;11.20;8.15;;;;;;;;;;5031614;28;20014;-65
2022/03/29 07:38:41;;;;;;;10.70;7.95;;;;;;;;;;5031464;28;20072;-65
2022/03/29 07:41:07;;;;;;;11.23;8.85;;;;;;;;;;5013784;28;20025;-73
2022/03/29 07:43:33;;;;;;;13.70;9.13;;;;;;;;;;5013989;28;20095;-73
2022/03/29 07:45:59;;;;;;;13.27;8.30;;;;;;;;;;5032181;28;20033;-74
2022/03/29 07:48:25;;;;;;;15.07;8.50;;;;;;;;;;5032097;28;20052;-66
2022/03/29 07:50:52;;;;;;;13.18;8.60;;;;;;;;;;5014180;28;20112;-74
2022/03/29 07:53:17;;;;;;;11.60;8.32;;;;;;;;;;5000775;28;20052;-69
2022/03/29 07:55:45;;;;;;;15.30;8.18;;;;;;;;;;4994871;28;20393;-73
2022/03/29 07:58:12;;;;;;;10.75;8.20;;;;;;;;;;5011702;28;20362;-65
2022/03/29 08:00:39;;;;;;;13.40;8.32;;;;;;;;;;5012357;28;20033;-65
2022/03/29 08:03:09;;;;;;;14.35;9.05;;;;;;;;;;5012307;28;20027;-76
2022/03/29 08:05:36;;;;;;;12.80;8.88;;;;;;;;;;5011953;28;20026;-66
2022/03/29 08:08:02;;;;;;;14.60;9.45;;;;;;;;;;5015373;28;20033;-76
2022/03/29 08:10:29;;;;;;;15.90;9.68;;;;;;;;;;5031621;28;20033;-77
2022/03/29 08:12:57;;;;;;;25.73;9.95;;;;;;;;;;5032028;28;20037;-73
2022/03/29 08:15:23;;;;;;;15.65;10.25;;;;;;;;;;5032181;28;20029;-68
2022/03/29 08:17:49;;;;;;;20.95;10.75;;;;;;;;;;5013696;28;20112;-74
2022/03/29 08:20:16;;;;;;;20.40;10.57;;;;;;;;;;5031648;28;20013;-66
2022/03/29 08:22:46;;;;;;;19.25;10.70;;;;;;;;;;5013963;28;20433;-69
2022/03/29 08:25:13;;;;;;;18.00;10.70;;;;;;;;;;5030050;28;20026;-74
2022/03/29 08:27:39;;;;;;;18.25;10.68;;;;;;;;;;5034827;28;20465;-64
2022/03/29 08:30:06;;;;;;;19.20;10.68;;;;;;;;;;5034357;28;20025;-66
2022/03/29 08:32:32;;;;;;;15.32;10.32;;;;;;;;;;5034067;28;20052;-72
2022/03/29 08:34:59;;;;;;;16.38;10.13;;;;;;;;;;5034799;28;20028;-73
2022/03/29 08:37:25;;;;;;;17.40;10.15;;;;;;;;;;5034582;28;20040;-66
2022/03/29 08:39:51;;;;;;;19.77;11.00;;;;;;;;;;5034626;28;20449;-65
2022/03/29 08:42:18;;;;;;;13.60;9.90;;;;;;;;;;5034558;28;20029;-67
2022/03/29 08:44:44;;;;;;;14.82;10.30;;;;;;;;;;5034702;28;20026;-70
2022/03/29 08:47:11;;;;;;;16.00;10.32;;;;;;;;;;5034507;28;20445;-75
2022/03/29 08:49:37;;;;;;;13.10;9.40;;;;;;;;;;5034848;28;20021;-66
2022/03/29 08:52:07;;;;;;;15.23;10.20;;;;;;;;;;5016658;28;20037;-75
2022/03/29 08:54:33;;;;;;;12.88;10.13;;;;;;;;;;5034649;28;20018;-74
2022/03/29 08:57:02;;;;;;;15.05;9.38;;;;;;;;;;5028109;28;20107;-74
2022/03/29 08:59:28;;;;;;;15.05;10.68;;;;;;;;;;5014722;28;20079;-75
2022/03/29 09:01:58;;;;;;;16.45;10.50;;;;;;;;;;5014653;28;20033;-67
2022/03/29 09:04:24;;;;;;;16.10;9.85;;;;;;;;;;5013332;28;20022;-66
2022/03/29 09:06:50;;;;;;;14.73;10.40;;;;;;;;;;5012953;28;20074;-65
2022/03/29 09:09:33;;;;;;;15.02;10.00;;;;;;;;;;5038732;28;20559;-66
2022/03/29 09:12:09;;;;;;;13.55;9.93;;;;;;;;;;5039319;28;20033;-67
2022/03/29 09:14:49;;;;;;;14.32;9.90;;;;;;;;;;5039330;28;20096;-65
2022/03/29 09:17:33;;;;;;;12.90;9.65;;;;;;;;;;5013524;28;20432;-69
2022/03/29 09:20:07;;;;;;;15.65;9.55;;;;;;;;;;5012649;28;20029;-67
2022/03/29 09:22:36;;;;;;;14.93;10.10;;;;;;;;;;5022519;28;20025;-69
2022/03/29 09:25:02;;;;;;;12.23;9.00;;;;;;;;;;5043800;28;20025;-66
2022/03/29 09:27:28;;;;;;;13.65;9.00;;;;;;;;;;5053269;28;20021;-69
2022/03/29 09:30:07;;;;;;;18.27;9.68;;;;;;;;;;5051128;28;20032;-71
2022/03/29 09:32:34;;;;;;;16.83;9.55;;;;;;;;;;5014488;28;20037;-73
2022/03/29 09:35:04;;;;;;;23.33;8.82;;;;;;;;;;5014869;28;20021;-75
2022/03/29 09:37:34;;;;;;;20.35;9.60;;;;;;;;;;5018616;28;20385;-74
2022/03/29 09:40:00;;;;;;;15.05;9.57;;;;;;;;;;5035764;28;20434;-67
2022/03/29 09:42:27;;;;;;;17.00;8.70;;;;;;;;;;5044495;28;20025;-74
2022/03/29 09:44:54;;;;;;;16.85;9.05;;;;;;;;;;5053403;28;20032;-68
2022/03/29 09:47:23;;;;;;;14.05;8.75;;;;;;;;;;5035602;28;20036;-66
2022/03/29 09:49:53;;;;;;;13.63;8.75;;;;;;;;;;5053311;28;20025;-67
2022/03/29 09:52:19;;;;;;;15.55;9.23;;;;;;;;;;5035023;28;20037;-73
2022/03/29 09:55:04;;;;;;;14.57;9.45;;;;;;;;;;5053344;28;20017;-68
2022/03/29 09:57:34;;;;;;;13.00;8.70;;;;;;;;;;5013035;28;20036;-66
2022/03/29 10:00:00;;;;;;;12.57;8.68;;;;;;;;;;5013436;28;20022;-69
2022/03/29 10:02:33;;;;;;;12.82;9.00;;;;;;;;;;4995372;28;20080;-67
2022/03/29 10:04:59;;;;;;;11.85;9.00;;;;;;;;;;5025675;28;20099;-68
2022/03/29 10:07:26;;;;;;;14.90;9.48;;;;;;;;;;5033415;28;20072;-67
2022/03/29 10:09:52;;;;;;;14.10;8.65;;;;;;;;;;5032808;28;20378;-68
2022/03/29 10:12:19;;;;;;;15.75;9.02;;;;;;;;;;5032397;28;20377;-69
2022/03/29 10:14:46;;;;;;;12.93;9.02;;;;;;;;;;5032919;28;20037;-68
2022/03/29 10:17:15;;;;;;;14.40;8.60;;;;;;;;;;5043643;28;20076;-67
2022/03/29 10:19:44;;;;;;;13.30;8.95;;;;;;;;;;5039525;28;20022;-72
2022/03/29 10:22:10;;;;;;;12.27;8.68;;;;;;;;;;5031550;28;20075;-71
2022/03/29 10:24:37;;;;;;;14.38;8.82;;;;;;;;;;5039855;28;20036;-67
2022/03/29 10:27:03;;;;;;;12.45;8.40;;;;;;;;;;5052842;28;20029;-67
2022/03/29 10:29:30;;;;;;;12.65;8.77;;;;;;;;;;5052764;28;20025;-68
2022/03/29 10:31:59;;;;;;;12.32;8.07;;;;;;;;;;5052083;28;20037;-73
2022/03/29 10:34:26;;;;;;;12.63;8.43;;;;;;;;;;5053096;28;20147;-68
2022/03/29 10:36:59;;;;;;;12.38;8.63;;;;;;;;;;5026509;28;20113;-70
2022/03/29 10:39:25;;;;;;;;;;;;;;;;;;5032981;28;20040;-69
2022/03/29 10:41:51;;;;;;;10.45;8.20;;;;;;;;;;5031946;28;19904;-71
2022/03/29 10:44:18;;;;;;;13.52;8.00;;;;;;;;;;5014555;28;20108;-68
2022/03/29 10:46:46;;;;;;;11.48;8.05;;;;;;;;;;5014021;28;20678;-68
2022/03/29 10:49:15;;;;;;;14.32;8.25;;;;;;;;;;5031932;28;20448;-68
2022/03/29 10:51:41;;;;;;;11.80;8.82;;;;;;;;;;5031883;28;20116;-71
2022/03/29 10:54:41;;;;;;;14.20;8.57;;;;;;;;;;5014275;28;20519;-67
2022/03/29 10:57:08;;;;;;;12.23;9.18;;;;;;;;;;4988724;28;20045;-70
2022/03/29 10:59:37;;;;;;;11.65;8.43;;;;;;;;;;5034287;28;20029;-69
2022/03/29 11:02:19;;;;;;;10.75;8.57;;;;;;;;;;5011400;28;20060;-68
2022/03/29 11:05:00;;;;;;;11.57;8.10;;;;;;;;;;5032410;28;20078;-71
2022/03/29 11:07:26;;;;;;;10.85;8.25;;;;;;;;;;5014384;28;20283;-71
2022/03/29 11:10:12;;;;;;;11.38;8.63;;;;;;;;;;5025098;28;20091;-70
2022/03/29 11:12:45;;;;;;;12.98;8.75;;;;;;;;;;5031233;28;20037;-73
2022/03/29 11:15:37;;;;;;;13.25;9.45;;;;;;;;;;5014110;28;20026;-73
2022/03/29 11:18:04;;;;;;;11.38;8.50;;;;;;;;;;5031593;28;20099;-71
2022/03/29 11:20:34;;;;;;;11.57;7.97;;;;;;;;;;5031922;28;20040;-67
2022/03/29 11:23:02;;;;;;;11.98;8.55;;;;;;;;;;5031559;28;20034;-68
2022/03/29 11:25:28;;;;;;;14.02;8.32;;;;;;;;;;5046025;28;20075;-69
2022/03/29 11:28:04;;;;;;;10.73;8.27;;;;;;;;;;5033963;28;20032;-67
2022/03/29 11:30:30;;;;;;;12.20;8.68;;;;;;;;;;5051583;28;20033;-68
2022/03/29 11:32:57;;;;;;;10.48;7.80;;;;;;;;;;5051657;28;20070;-74
2022/03/29 11:35:26;;;;;;;10.45;7.63;;;;;;;;;;5030589;28;20018;-73
2022/03/29 11:37:53;;;;;;;12.32;8.15;;;;;;;;;;5024154;28;20062;-70
2022/03/29 11:40:20;;;;;;;12.15;8.35;;;;;;;;;;5019491;28;20034;-74
2022/03/29 11:42:50;;;;;;;9.35;7.50;;;;;;;;;;5032351;28;20056;-76
2022/03/29 11:45:18;;;;;;;15.60;8.38;;;;;;;;;;5032455;28;20033;-76
2022/03/29 11:48:00;;;;;;;9.93;7.03;;;;;;;;;;5014689;28;20366;-76
2022/03/29 11:50:29;;;;;;;10.98;7.60;;;;;;;;;;5032599;28;20063;-74
2022/03/29 11:52:55;;;;;;;10.55;7.00;;;;;;;;;;5032208;28;20484;-72
2022/03/29 11:55:22;;;;;;;8.82;7.07;;;;;;;;;;5032390;28;20100;-75
2022/03/29 11:57:48;;;;;;;10.63;6.80;;;;;;;;;;5014171;28;20026;-71
2022/03/29 12:00:23;;;;;;;9.38;7.18;;;;;;;;;;5033528;28;20523;-75
2022/03/29 12:02:49;;;;;;;12.68;7.30;;;;;;;;;;5035845;28;20341;-76
2022/03/29 12:05:26;;;;;;;10.20;6.93;;;;;;;;;;5038655;28;20053;-74
2022/03/29 12:08:03;;;;;;;8.35;6.50;;;;;;;;;;5026696;28;20040;-68
2022/03/29 12:10:30;;;;;;;10.00;7.18;;;;;;;;;;5037532;28;20026;-75
2022/03/29 12:12:56;;;;;;;9.52;7.00;;;;;;;;;;5024983;28;20163;-72
2022/03/29 12:15:22;;;;;;;9.45;7.03;;;;;;;;;;5053994;28;20025;-74
2022/03/29 12:18:40;;;;;;;8.23;6.35;;;;;;;;;;5055379;28;20140;-74
2022/03/29 12:20:41;;;;;;;12.70;7.35;;;;;;;;;;5047843;28;20033;-74
2022/03/29 12:23:16;;;;;;;9.15;7.15;;;;;;;;;;5035659;28;20033;-73
2022/03/29 12:25:43;;;;;;;9.90;7.35;;;;;;;;;;5025420;28;20385;-74
2022/03/29 12:28:09;;;;;;;10.15;6.95;;;;;;;;;;5011873;28;20029;-75
2022/03/29 12:30:35;;;;;;;8.50;6.68;;;;;;;;;;5035552;28;20138;-74
2022/03/29 12:33:01;;;;;;;10.23;7.05;;;;;;;;;;5035511;28;20128;-67
2022/03/29 12:35:30;;;;;;;8.70;6.65;;;;;;;;;;5035444;28;20465;-74
2022/03/29 12:38:06;;;;;;;7.88;6.40;;;;;;;;;;5035534;28;20029;-75
2022/03/29 12:40:32;;;;;;;9.60;6.93;;;;;;;;;;5019008;28;20025;-73
2022/03/29 12:43:02;;;;;;;9.18;6.95;;;;;;;;;;5048149;28;20034;-67
2022/03/29 12:45:28;;;;;;;8.88;6.47;;;;;;;;;;5037788;28;20032;-73
2022/03/29 12:47:55;;;;;;;9.25;6.75;;;;;;;;;;5017348;28;20671;-72
2022/03/29 12:50:22;;;;;;;10.52;6.72;;;;;;;;;;5035087;28;20021;-71
2022/03/29 12:52:48;;;;;;;7.78;6.60;;;;;;;;;;5035037;28;20041;-72
2022/03/29 12:55:18;;;;;;;8.63;7.07;;;;;;;;;;5017542;28;20033;-71
2022/03/29 12:57:45;;;;;;;11.50;7.15;;;;;;;;;;5034916;28;20025;-73
2022/03/29 13:00:14;;;;;;;10.10;6.72;;;;;;;;;;5017104;28;20025;-69
2022/03/29 13:02:43;;;;;;;8.50;6.80;;;;;;;;;;5035081;28;20108;-74
2022/03/29 13:05:09;;;;;;;9.20;6.53;;;;;;;;;;5035491;28;20026;-73
2022/03/29 13:07:41;;;;;;;9.48;7.38;;;;;;;;;;5034809;28;20033;-73
2022/03/29 13:10:10;;;;;;;9.85;7.20;;;;;;;;;;5017132;28;20029;-73
2022/03/29 13:12:53;;;;;;;10.30;7.47;;;;;;;;;;5034198;28;20033;-73
2022/03/29 13:15:19;;;;;;;;;;;;;;;;;;5035234;28;20405;-73
2022/03/29 13:17:45;;;;;;;11.05;7.88;;;;;;;;;;5034658;28;20014;-74
2022/03/29 13:20:11;;;;;;;9.23;7.10;;;;;;;;;;5017345;28;20053;-74
2022/03/29 13:22:44;;;;;;;10.55;7.40;;;;;;;;;;5034643;28;20512;-74
2022/03/29 13:25:10;;;;;;;10.98;7.32;;;;;;;;;;5034790;28;20036;-74
2022/03/29 13:27:36;;;;;;;10.00;8.05;;;;;;;;;;5034907;28;20364;-74
2022/03/29 13:30:02;;;;;;;10.30;8.20;;;;;;;;;;5034625;28;20022;-73
2022/03/29 13:32:28;;;;;;;11.50;7.88;;;;;;;;;;5034243;28;20044;-73
2022/03/29 13:34:54;;;;;;;9.20;7.25;;;;;;;;;;5034788;28;20475;-73
2022/03/29 13:37:20;;;;;;;11.80;7.68;;;;;;;;;;5034626;28;20025;-73
2022/03/29 13:39:47;;;;;;;11.90;7.60;;;;;;;;;;5034303;28;20372;-73
2022/03/29 13:42:13;;;;;;;10.30;7.55;;;;;;;;;;5034279;28;20024;-72
2022/03/29 13:44:39;;;;;;;10.45;7.25;;;;;;;;;;5034496;28;20025;-71
2022/03/29 13:47:05;;;;;;;11.10;7.00;;;;;;;;;;5054002;28;20048;-72
2022/03/29 13:49:31;;;;;;;8.57;6.60;;;;;;;;;;5054049;28;20100;-73
2022/03/29 13:51:58;;;;;;;10.88;7.50;;;;;;;;;;5053745;28;20112;-73
2022/03/29 13:54:24;;;;;;;24.83;7.28;;;;;;;;;;5054245;28;20484;-74
2022/03/29 13:56:50;;;;;;;21.20;7.18;;;;;;;;;;5053733;28;20021;-74
2022/03/29 13:59:17;;;;;;;66.05;9.88;;;;;;;;;;5036133;28;20033;-72
2022/03/29 14:01:43;;;;;;;65.95;9.35;;;;;;;;;;5053944;28;20031;-79
2022/03/29 14:04:09;;;;;;;62.83;10.77;;;;;;;;;;5053710;28;20400;-74
2022/03/29 14:06:35;;;;;;;93.25;12.85;;;;;;;;;;5053487;28;20033;-76
2022/03/29 14:09:02;;;;;;;76.40;12.45;;;;;;;;;;5053583;28;20032;-72
2022/03/29 14:11:28;;;;;;;57.25;9.82;;;;;;;;;;5053467;28;20478;-74
2022/03/29 14:13:54;;;;;;;71.72;11.18;;;;;;;;;;5053570;28;20507;-70
2022/03/29 14:16:21;;;;;;;57.17;9.35;;;;;;;;;;5045616;28;20026;-73
2022/03/29 14:18:47;;;;;;;57.67;9.07;;;;;;;;;;5032903;28;20111;-76
2022/03/29 14:21:13;;;;;;;63.70;9.45;;;;;;;;;;5032866;28;20068;-72
2022/03/29 14:23:39;;;;;;;37.40;8.15;;;;;;;;;;5032027;28;20021;-72
2022/03/29 14:26:05;;;;;;;44.58;8.20;;;;;;;;;;5049254;28;20386;-72
2022/03/29 14:28:31;;;;;;;41.17;8.10;;;;;;;;;;5050034;28;20025;-75
2022/03/29 14:30:58;;;;;;;29.17;8.10;;;;;;;;;;5010809;28;20117;-77
2022/03/29 14:33:24;;;;;;;25.75;7.82;;;;;;;;;;5020150;28;20037;-74
2022/03/29 14:35:52;;;;;;;30.58;8.10;;;;;;;;;;5032410;28;20018;-73
2022/03/29 14:38:18;;;;;;;26.98;8.75;;;;;;;;;;5032484;28;20040;-72
2022/03/29 14:40:46;;;;;;;24.13;8.40;;;;;;;;;;5032577;28;20018;-72
2022/03/29 14:43:13;;;;;;;21.15;7.38;;;;;;;;;;5032688;28;20087;-73